sensor_id;sensor_type;location;lat;lon;timestamp;pressure;altitude;pressure_sealevel;temperature;humidity
63347;BME280;49472;49.880;8.650;2022-11-15T00:00:31;99667.69;;;35.82;22.60
63347;BME280;49472;49.880;8.650;2022-11-15T00:02:57;99673.03;;;34.67;23.58
63347;BME280;49472;49.880;8.650;2022-11-15T00:05:22;99676.53;;;33.89;24.30
63347;BME280;49472;49.880;8.650;2022-11-15T00:07:47;99674.25;;;33.72;24.22
63347;BME280;49472;49.880;8.650;2022-11-15T00:10:13;99673.38;;;34.61;23.75
63347;BME280;49472;49.880;8.650;2022-11-15T00:12:38;99677.19;;;33.65;24.15
63347;BME280;49472;49.880;8.650;2022-11-15T00:15:04;99674.00;;;33.68;24.47
63347;BME280;49472;49.880;8.650;2022-11-15T00:17:29;99664.44;;;35.48;22.81
63347;BME280;49472;49.880;8.650;2022-11-15T00:19:54;99671.13;;;35.21;22.96
63347;BME280;49472;49.880;8.650;2022-11-15T00:22:20;99669.03;;;34.94;22.98
63347;BME280;49472;49.880;8.650;2022-11-15T00:24:45;99669.09;;;35.37;22.84
63347;BME280;49472;49.880;8.650;2022-11-15T00:27:11;99664.09;;;35.11;23.25
63347;BME280;49472;49.880;8.650;2022-11-15T00:29:36;99673.66;;;33.80;24.35
63347;BME280;49472;49.880;8.650;2022-11-15T00:32:04;99671.59;;;35.04;23.49
63347;BME280;49472;49.880;8.650;2022-11-15T00:34:29;99681.53;;;34.35;23.83
63347;BME280;49472;49.880;8.650;2022-11-15T00:36:54;99676.94;;;34.11;24.35
63347;BME280;49472;49.880;8.650;2022-11-15T00:39:19;99675.75;;;34.57;23.59
63347;BME280;49472;49.880;8.650;2022-11-15T00:41:45;99668.53;;;34.33;23.60
63347;BME280;49472;49.880;8.650;2022-11-15T00:44:10;99669.28;;;35.21;22.89
63347;BME280;49472;49.880;8.650;2022-11-15T00:46:35;99669.69;;;35.53;22.63
63347;BME280;49472;49.880;8.650;2022-11-15T00:49:01;99665.69;;;35.07;23.23
63347;BME280;49472;49.880;8.650;2022-11-15T00:51:26;99661.22;;;34.49;23.86
63347;BME280;49472;49.880;8.650;2022-11-15T00:53:51;99649.53;;;34.79;23.30
63347;BME280;49472;49.880;8.650;2022-11-15T00:56:16;99651.72;;;34.43;24.19
63347;BME280;49472;49.880;8.650;2022-11-15T00:58:42;99653.94;;;35.37;23.23
63347;BME280;49472;49.880;8.650;2022-11-15T01:01:09;99654.66;;;34.42;24.14
63347;BME280;49472;49.880;8.650;2022-11-15T01:03:35;99640.03;;;34.97;23.27
63347;BME280;49472;49.880;8.650;2022-11-15T01:06:00;99640.91;;;35.60;22.62
63347;BME280;49472;49.880;8.650;2022-11-15T01:08:26;99641.88;;;35.45;22.94
63347;BME280;49472;49.880;8.650;2022-11-15T01:10:51;99637.81;;;36.04;22.43
63347;BME280;49472;49.880;8.650;2022-11-15T01:13:16;99636.09;;;35.95;22.37
63347;BME280;49472;49.880;8.650;2022-11-15T01:15:41;99632.66;;;36.73;22.18
63347;BME280;49472;49.880;8.650;2022-11-15T01:18:07;99626.22;;;36.61;22.28
63347;BME280;49472;49.880;8.650;2022-11-15T01:20:32;99626.34;;;36.83;21.65
63347;BME280;49472;49.880;8.650;2022-11-15T01:22:58;99628.38;;;36.45;21.95
63347;BME280;49472;49.880;8.650;2022-11-15T01:25:23;99638.56;;;35.72;22.57
63347;BME280;49472;49.880;8.650;2022-11-15T01:27:48;99637.88;;;37.06;21.77
63347;BME280;49472;49.880;8.650;2022-11-15T01:30:14;99631.69;;;37.47;20.74
63347;BME280;49472;49.880;8.650;2022-11-15T01:32:39;99625.44;;;37.15;21.50
63347;BME280;49472;49.880;8.650;2022-11-15T01:35:04;99622.28;;;36.12;22.36
63347;BME280;49472;49.880;8.650;2022-11-15T01:37:30;99629.97;;;37.01;21.73
63347;BME280;49472;49.880;8.650;2022-11-15T01:39:55;99629.06;;;37.20;21.18
63347;BME280;49472;49.880;8.650;2022-11-15T01:42:20;99627.94;;;35.72;22.41
63347;BME280;49472;49.880;8.650;2022-11-15T01:44:50;99623.13;;;36.40;22.78
63347;BME280;49472;49.880;8.650;2022-11-15T01:47:23;99630.28;;;36.25;21.97
63347;BME280;49472;49.880;8.650;2022-11-15T01:50:02;99630.56;;;35.91;22.48
63347;BME280;49472;49.880;8.650;2022-11-15T01:52:30;99624.22;;;36.53;22.66
63347;BME280;49472;49.880;8.650;2022-11-15T01:57:34;99622.22;;;36.17;22.40
63347;BME280;49472;49.880;8.650;2022-11-15T02:00:00;99629.31;;;36.82;22.06
63347;BME280;49472;49.880;8.650;2022-11-15T02:02:26;99624.28;;;36.80;22.02
63347;BME280;49472;49.880;8.650;2022-11-15T02:04:51;99612.84;;;37.07;22.10
63347;BME280;49472;49.880;8.650;2022-11-15T02:07:18;99611.97;;;37.34;22.14
63347;BME280;49472;49.880;8.650;2022-11-15T02:09:45;99608.88;;;36.91;21.99
63347;BME280;49472;49.880;8.650;2022-11-15T02:12:15;99604.50;;;37.23;22.07
63347;BME280;49472;49.880;8.650;2022-11-15T02:14:45;99606.41;;;36.94;22.51
63347;BME280;49472;49.880;8.650;2022-11-15T02:20:11;99590.88;;;36.97;22.19
63347;BME280;49472;49.880;8.650;2022-11-15T02:25:34;99573.94;;;36.92;22.69
63347;BME280;49472;49.880;8.650;2022-11-15T02:30:53;99564.66;;;36.90;22.04
63347;BME280;49472;49.880;8.650;2022-11-15T02:36:03;99570.78;;;35.51;23.43
63347;BME280;49472;49.880;8.650;2022-11-15T02:38:46;99560.72;;;36.73;22.47
63347;BME280;49472;49.880;8.650;2022-11-15T02:41:20;99565.44;;;36.02;23.29
63347;BME280;49472;49.880;8.650;2022-11-15T02:43:54;99553.03;;;36.72;22.28
63347;BME280;49472;49.880;8.650;2022-11-15T02:49:17;99553.78;;;36.17;22.82
63347;BME280;49472;49.880;8.650;2022-11-15T02:51:44;99561.91;;;35.60;23.52
63347;BME280;49472;49.880;8.650;2022-11-15T02:54:19;99559.44;;;35.64;23.28
63347;BME280;49472;49.880;8.650;2022-11-15T02:56:46;99556.09;;;35.39;23.30
63347;BME280;49472;49.880;8.650;2022-11-15T03:04:58;99551.22;;;36.95;21.86
63347;BME280;49472;49.880;8.650;2022-11-15T03:10:31;99549.00;;;35.49;23.21
63347;BME280;49472;49.880;8.650;2022-11-15T03:13:10;99543.13;;;36.17;23.13
63347;BME280;49472;49.880;8.650;2022-11-15T03:15:52;99547.69;;;36.86;22.19
63347;BME280;49472;49.880;8.650;2022-11-15T03:18:21;99535.72;;;37.11;21.48
63347;BME280;49472;49.880;8.650;2022-11-15T03:20:50;99546.97;;;36.94;22.37
63347;BME280;49472;49.880;8.650;2022-11-15T03:23:16;99542.34;;;37.00;21.86
63347;BME280;49472;49.880;8.650;2022-11-15T03:25:46;99542.56;;;36.89;22.49
63347;BME280;49472;49.880;8.650;2022-11-15T03:28:17;99559.09;;;37.14;22.10
63347;BME280;49472;49.880;8.650;2022-11-15T03:30:45;99563.66;;;36.30;22.32
63347;BME280;49472;49.880;8.650;2022-11-15T03:33:12;99552.47;;;35.68;23.06
63347;BME280;49472;49.880;8.650;2022-11-15T03:35:40;99556.75;;;37.12;21.86
63347;BME280;49472;49.880;8.650;2022-11-15T03:38:15;99547.72;;;37.45;20.98
63347;BME280;49472;49.880;8.650;2022-11-15T03:40:45;99547.72;;;37.58;21.01
63347;BME280;49472;49.880;8.650;2022-11-15T03:46:00;99544.94;;;37.95;21.14
63347;BME280;49472;49.880;8.650;2022-11-15T03:48:30;99551.69;;;37.70;20.92
63347;BME280;49472;49.880;8.650;2022-11-15T03:50:59;99548.09;;;37.29;21.91
63347;BME280;49472;49.880;8.650;2022-11-15T03:53:24;99551.84;;;37.28;21.56
63347;BME280;49472;49.880;8.650;2022-11-15T03:55:50;99550.84;;;36.88;21.82
63347;BME280;49472;49.880;8.650;2022-11-15T03:58:15;99547.38;;;36.46;22.64
63347;BME280;49472;49.880;8.650;2022-11-15T04:00:40;99554.69;;;36.54;22.16
63347;BME280;49472;49.880;8.650;2022-11-15T04:03:05;99548.28;;;36.41;22.12
63347;BME280;49472;49.880;8.650;2022-11-15T04:05:32;99549.78;;;36.61;21.87
63347;BME280;49472;49.880;8.650;2022-11-15T04:07:57;99551.84;;;36.37;22.32
63347;BME280;49472;49.880;8.650;2022-11-15T04:10:23;99555.88;;;36.48;22.31
63347;BME280;49472;49.880;8.650;2022-11-15T04:12:48;99555.28;;;36.37;22.24
63347;BME280;49472;49.880;8.650;2022-11-15T04:15:16;99552.06;;;36.82;22.05
63347;BME280;49472;49.880;8.650;2022-11-15T04:17:49;99548.28;;;36.55;22.75
63347;BME280;49472;49.880;8.650;2022-11-15T04:23:10;99557.47;;;36.49;22.52
63347;BME280;49472;49.880;8.650;2022-11-15T04:25:55;99556.97;;;36.61;22.08
63347;BME280;49472;49.880;8.650;2022-11-15T04:28:21;99553.91;;;36.26;22.56
63347;BME280;49472;49.880;8.650;2022-11-15T04:30:47;99554.88;;;36.30;22.56
63347;BME280;49472;49.880;8.650;2022-11-15T04:33:13;99554.50;;;36.37;22.76
63347;BME280;49472;49.880;8.650;2022-11-15T04:35:39;99551.72;;;36.28;22.75
63347;BME280;49472;49.880;8.650;2022-11-15T04:38:06;99550.75;;;36.38;22.13
63347;BME280;49472;49.880;8.650;2022-11-15T04:40:32;99549.84;;;36.42;22.38
63347;BME280;49472;49.880;8.650;2022-11-15T04:42:57;99551.44;;;36.29;22.92
63347;BME280;49472;49.880;8.650;2022-11-15T04:45:23;99552.13;;;35.89;22.78
63347;BME280;49472;49.880;8.650;2022-11-15T04:47:48;99561.50;;;35.67;22.92
63347;BME280;49472;49.880;8.650;2022-11-15T04:50:14;99552.00;;;36.13;22.58
63347;BME280;49472;49.880;8.650;2022-11-15T04:52:50;99546.00;;;36.35;22.31
63347;BME280;49472;49.880;8.650;2022-11-15T04:55:16;99546.63;;;35.99;22.84
63347;BME280;49472;49.880;8.650;2022-11-15T04:57:41;99552.72;;;36.18;23.03
63347;BME280;49472;49.880;8.650;2022-11-15T05:00:13;99545.94;;;36.07;23.38
63347;BME280;49472;49.880;8.650;2022-11-15T05:02:39;99546.53;;;35.90;23.38
63347;BME280;49472;49.880;8.650;2022-11-15T05:05:23;99546.91;;;36.16;23.13
63347;BME280;49472;49.880;8.650;2022-11-15T05:07:49;99548.28;;;36.27;22.74
63347;BME280;49472;49.880;8.650;2022-11-15T05:10:14;99542.81;;;35.72;23.46
63347;BME280;49472;49.880;8.650;2022-11-15T05:12:40;99543.03;;;35.57;23.77
63347;BME280;49472;49.880;8.650;2022-11-15T05:15:05;99536.69;;;35.91;23.38
63347;BME280;49472;49.880;8.650;2022-11-15T05:17:31;99530.72;;;36.26;22.67
63347;BME280;49472;49.880;8.650;2022-11-15T05:19:56;99527.59;;;35.78;23.60
63347;BME280;49472;49.880;8.650;2022-11-15T05:22:22;99527.31;;;36.07;23.02
63347;BME280;49472;49.880;8.650;2022-11-15T05:24:47;99524.97;;;36.05;23.54
63347;BME280;49472;49.880;8.650;2022-11-15T05:27:12;99525.19;;;36.23;23.29
63347;BME280;49472;49.880;8.650;2022-11-15T05:29:38;99525.47;;;35.42;23.92
63347;BME280;49472;49.880;8.650;2022-11-15T05:32:05;99532.28;;;35.48;23.48
63347;BME280;49472;49.880;8.650;2022-11-15T05:34:31;99530.72;;;35.47;23.50
63347;BME280;49472;49.880;8.650;2022-11-15T05:36:57;99521.78;;;35.00;23.92
63347;BME280;49472;49.880;8.650;2022-11-15T05:39:22;99521.72;;;35.62;23.49
63347;BME280;49472;49.880;8.650;2022-11-15T05:41:52;99514.59;;;35.90;23.57
63347;BME280;49472;49.880;8.650;2022-11-15T05:44:21;99513.97;;;36.26;23.57
63347;BME280;49472;49.880;8.650;2022-11-15T05:46:48;99514.53;;;36.23;22.93
63347;BME280;49472;49.880;8.650;2022-11-15T05:49:17;99515.88;;;35.93;23.71
63347;BME280;49472;49.880;8.650;2022-11-15T05:51:45;99523.09;;;36.06;23.12
63347;BME280;49472;49.880;8.650;2022-11-15T05:54:13;99513.84;;;36.03;23.39
63347;BME280;49472;49.880;8.650;2022-11-15T05:56:39;99507.91;;;36.06;23.38
63347;BME280;49472;49.880;8.650;2022-11-15T05:59:05;99497.78;;;36.08;23.34
63347;BME280;49472;49.880;8.650;2022-11-15T06:01:30;99497.69;;;36.27;23.42
63347;BME280;49472;49.880;8.650;2022-11-15T06:03:56;99495.91;;;36.09;23.49
63347;BME280;49472;49.880;8.650;2022-11-15T06:06:21;99499.56;;;36.27;23.33
63347;BME280;49472;49.880;8.650;2022-11-15T06:08:46;99496.59;;;36.01;23.53
63347;BME280;49472;49.880;8.650;2022-11-15T06:11:13;99510.00;;;36.51;22.90
63347;BME280;49472;49.880;8.650;2022-11-15T06:13:38;99512.97;;;36.63;22.93
63347;BME280;49472;49.880;8.650;2022-11-15T06:16:04;99504.78;;;36.46;23.57
63347;BME280;49472;49.880;8.650;2022-11-15T06:18:32;99508.75;;;37.35;22.49
63347;BME280;49472;49.880;8.650;2022-11-15T06:20:59;99503.59;;;36.66;22.71
63347;BME280;49472;49.880;8.650;2022-11-15T06:23:24;99512.88;;;36.55;22.90
63347;BME280;49472;49.880;8.650;2022-11-15T06:25:50;99522.03;;;36.90;22.93
63347;BME280;49472;49.880;8.650;2022-11-15T06:28:15;99517.09;;;36.83;23.43
63347;BME280;49472;49.880;8.650;2022-11-15T06:30:40;99517.25;;;36.64;22.97
63347;BME280;49472;49.880;8.650;2022-11-15T06:33:06;99511.59;;;36.52;23.06
63347;BME280;49472;49.880;8.650;2022-11-15T06:35:33;99507.25;;;36.42;23.56
63347;BME280;49472;49.880;8.650;2022-11-15T06:38:06;99516.47;;;37.00;23.00
63347;BME280;49472;49.880;8.650;2022-11-15T06:40:34;99504.78;;;36.32;23.89
63347;BME280;49472;49.880;8.650;2022-11-15T06:43:00;99506.47;;;36.42;23.26
63347;BME280;49472;49.880;8.650;2022-11-15T06:45:25;99514.47;;;36.42;23.05
63347;BME280;49472;49.880;8.650;2022-11-15T06:47:51;99518.50;;;36.25;23.59
63347;BME280;49472;49.880;8.650;2022-11-15T06:50:16;99519.00;;;36.27;23.15
63347;BME280;49472;49.880;8.650;2022-11-15T06:52:41;99515.16;;;35.87;23.80
63347;BME280;49472;49.880;8.650;2022-11-15T06:55:07;99517.03;;;35.73;24.01
63347;BME280;49472;49.880;8.650;2022-11-15T06:57:33;99522.13;;;34.93;24.60
63347;BME280;49472;49.880;8.650;2022-11-15T06:59:58;99527.56;;;34.64;25.00
63347;BME280;49472;49.880;8.650;2022-11-15T07:02:24;99519.59;;;35.78;23.80
63347;BME280;49472;49.880;8.650;2022-11-15T07:04:50;99525.19;;;35.25;24.08
63347;BME280;49472;49.880;8.650;2022-11-15T07:07:15;99523.47;;;35.85;23.34
63347;BME280;49472;49.880;8.650;2022-11-15T07:09:40;99518.13;;;34.96;24.05
63347;BME280;49472;49.880;8.650;2022-11-15T07:12:06;99517.00;;;35.21;23.88
63347;BME280;49472;49.880;8.650;2022-11-15T07:14:31;99517.97;;;34.87;24.15
63347;BME280;49472;49.880;8.650;2022-11-15T07:16:56;99514.16;;;34.93;24.24
63347;BME280;49472;49.880;8.650;2022-11-15T07:19:21;99512.34;;;35.32;24.28
63347;BME280;49472;49.880;8.650;2022-11-15T07:21:47;99515.72;;;34.75;24.45
63347;BME280;49472;49.880;8.650;2022-11-15T07:24:12;99520.66;;;34.63;24.14
63347;BME280;49472;49.880;8.650;2022-11-15T07:26:37;99507.69;;;35.75;23.70
63347;BME280;49472;49.880;8.650;2022-11-15T07:29:03;99511.31;;;35.28;23.84
63347;BME280;49472;49.880;8.650;2022-11-15T07:31:28;99515.38;;;35.39;24.21
63347;BME280;49472;49.880;8.650;2022-11-15T07:33:53;99516.59;;;34.90;23.81
63347;BME280;49472;49.880;8.650;2022-11-15T07:36:18;99505.19;;;36.39;22.65
63347;BME280;49472;49.880;8.650;2022-11-15T07:38:44;99514.66;;;35.71;23.39
63347;BME280;49472;49.880;8.650;2022-11-15T07:41:09;99509.72;;;36.25;23.18
63347;BME280;49472;49.880;8.650;2022-11-15T07:43:34;99505.47;;;36.38;22.96
63347;BME280;49472;49.880;8.650;2022-11-15T07:46:05;99506.38;;;36.47;22.46
63347;BME280;49472;49.880;8.650;2022-11-15T07:48:30;99500.84;;;36.43;23.09
63347;BME280;49472;49.880;8.650;2022-11-15T07:50:56;99503.81;;;36.42;22.61
63347;BME280;49472;49.880;8.650;2022-11-15T07:53:21;99513.16;;;36.53;22.94
63347;BME280;49472;49.880;8.650;2022-11-15T07:55:46;99506.75;;;36.68;22.98
63347;BME280;49472;49.880;8.650;2022-11-15T07:58:13;99505.41;;;37.07;22.39
63347;BME280;49472;49.880;8.650;2022-11-15T08:00:38;99509.53;;;36.77;22.45
63347;BME280;49472;49.880;8.650;2022-11-15T08:03:09;99505.03;;;37.00;22.52
63347;BME280;49472;49.880;8.650;2022-11-15T08:05:36;99507.53;;;36.82;22.46
63347;BME280;49472;49.880;8.650;2022-11-15T08:08:02;99509.56;;;37.13;22.80
63347;BME280;49472;49.880;8.650;2022-11-15T08:10:28;99515.53;;;36.82;22.71
63347;BME280;49472;49.880;8.650;2022-11-15T08:12:59;99513.66;;;37.19;22.25
63347;BME280;49472;49.880;8.650;2022-11-15T08:15:24;99507.28;;;37.06;22.38
63347;BME280;49472;49.880;8.650;2022-11-15T08:17:54;99512.41;;;37.39;22.17
63347;BME280;49472;49.880;8.650;2022-11-15T08:20:20;99510.47;;;37.76;22.21
63347;BME280;49472;49.880;8.650;2022-11-15T08:22:45;99504.00;;;37.68;21.98
63347;BME280;49472;49.880;8.650;2022-11-15T08:25:10;99510.78;;;37.83;22.35
63347;BME280;49472;49.880;8.650;2022-11-15T08:27:35;99516.97;;;37.61;22.31
63347;BME280;49472;49.880;8.650;2022-11-15T08:30:01;99513.41;;;37.66;21.93
63347;BME280;49472;49.880;8.650;2022-11-15T08:32:27;99510.28;;;37.05;22.75
63347;BME280;49472;49.880;8.650;2022-11-15T08:34:52;99504.69;;;37.37;22.75
63347;BME280;49472;49.880;8.650;2022-11-15T08:37:17;99512.88;;;37.19;22.85
63347;BME280;49472;49.880;8.650;2022-11-15T08:39:43;99500.16;;;35.77;23.97
63347;BME280;49472;49.880;8.650;2022-11-15T08:42:08;99504.94;;;36.91;22.99
63347;BME280;49472;49.880;8.650;2022-11-15T08:44:33;99506.63;;;35.90;23.23
63347;BME280;49472;49.880;8.650;2022-11-15T08:46:58;99506.94;;;35.37;24.10
63347;BME280;49472;49.880;8.650;2022-11-15T08:49:24;99502.88;;;36.05;23.50
63347;BME280;49472;49.880;8.650;2022-11-15T08:51:49;99508.88;;;35.12;23.98
63347;BME280;49472;49.880;8.650;2022-11-15T08:54:14;99505.09;;;36.17;23.21
63347;BME280;49472;49.880;8.650;2022-11-15T08:56:40;99508.16;;;36.65;22.89
63347;BME280;49472;49.880;8.650;2022-11-15T08:59:05;99511.34;;;35.93;23.56
63347;BME280;49472;49.880;8.650;2022-11-15T09:01:30;99515.97;;;34.31;25.25
63347;BME280;49472;49.880;8.650;2022-11-15T09:03:57;99501.25;;;36.09;23.61
63347;BME280;49472;49.880;8.650;2022-11-15T09:06:22;99504.44;;;36.89;22.56
63347;BME280;49472;49.880;8.650;2022-11-15T09:08:48;99503.13;;;36.64;23.06
63347;BME280;49472;49.880;8.650;2022-11-15T09:11:13;99504.69;;;36.37;23.54
63347;BME280;49472;49.880;8.650;2022-11-15T09:13:41;99503.28;;;36.54;23.67
63347;BME280;49472;49.880;8.650;2022-11-15T09:16:06;99499.59;;;37.27;23.05
63347;BME280;49472;49.880;8.650;2022-11-15T09:18:32;99501.06;;;37.11;22.34
63347;BME280;49472;49.880;8.650;2022-11-15T09:20:58;99493.56;;;36.63;23.27
63347;BME280;49472;49.880;8.650;2022-11-15T09:23:24;99492.63;;;35.98;23.04
63347;BME280;49472;49.880;8.650;2022-11-15T09:25:50;99493.31;;;35.90;23.66
63347;BME280;49472;49.880;8.650;2022-11-15T09:28:16;99495.38;;;35.93;23.68
63347;BME280;49472;49.880;8.650;2022-11-15T09:30:41;99494.66;;;36.34;23.11
63347;BME280;49472;49.880;8.650;2022-11-15T09:33:11;99493.81;;;36.06;23.73
63347;BME280;49472;49.880;8.650;2022-11-15T09:35:37;99490.25;;;35.50;24.94
63347;BME280;49472;49.880;8.650;2022-11-15T09:38:03;99492.09;;;36.57;23.47
63347;BME280;49472;49.880;8.650;2022-11-15T09:40:30;99484.63;;;35.84;24.13
63347;BME280;49472;49.880;8.650;2022-11-15T09:51:24;99484.16;;;35.82;24.47
63347;BME280;49472;49.880;8.650;2022-11-15T09:56:47;99486.53;;;36.53;23.03
63347;BME280;49472;49.880;8.650;2022-11-15T09:59:38;99478.97;;;37.33;23.25
63347;BME280;49472;49.880;8.650;2022-11-15T10:04:49;99485.13;;;35.73;24.33
63347;BME280;49472;49.880;8.650;2022-11-15T10:12:45;99477.06;;;36.05;24.53
63347;BME280;49472;49.880;8.650;2022-11-15T10:15:15;99466.75;;;36.32;24.07
63347;BME280;49472;49.880;8.650;2022-11-15T10:20:25;99477.63;;;34.85;24.74
63347;BME280;49472;49.880;8.650;2022-11-15T10:22:55;99460.31;;;36.46;23.92
63347;BME280;49472;49.880;8.650;2022-11-15T10:25:25;99452.00;;;36.76;23.30
63347;BME280;49472;49.880;8.650;2022-11-15T10:27:59;99457.47;;;36.29;23.98
63347;BME280;49472;49.880;8.650;2022-11-15T10:30:37;99465.13;;;35.05;24.79
63347;BME280;49472;49.880;8.650;2022-11-15T10:39:00;99450.59;;;36.78;23.19
63347;BME280;49472;49.880;8.650;2022-11-15T10:44:30;99440.03;;;37.09;23.25
63347;BME280;49472;49.880;8.650;2022-11-15T10:49:26;99434.41;;;37.56;22.83
63347;BME280;49472;49.880;8.650;2022-11-15T10:51:58;99426.66;;;38.17;22.10
63347;BME280;49472;49.880;8.650;2022-11-15T10:54:42;99417.19;;;37.40;22.92
63347;BME280;49472;49.880;8.650;2022-11-15T10:57:15;99412.78;;;37.97;22.61
63347;BME280;49472;49.880;8.650;2022-11-15T10:59:45;99411.13;;;37.88;22.49
63347;BME280;49472;49.880;8.650;2022-11-15T11:04:52;99409.22;;;36.58;23.39
63347;BME280;49472;49.880;8.650;2022-11-15T11:07:24;99403.63;;;37.27;23.61
63347;BME280;49472;49.880;8.650;2022-11-15T11:09:58;99400.09;;;38.29;22.57
63347;BME280;49472;49.880;8.650;2022-11-15T11:12:32;99403.34;;;36.34;24.28
63347;BME280;49472;49.880;8.650;2022-11-15T11:15:00;99398.38;;;35.58;24.92
63347;BME280;49472;49.880;8.650;2022-11-15T11:20:25;99382.25;;;36.96;24.24
63347;BME280;49472;49.880;8.650;2022-11-15T11:31:47;99370.72;;;39.63;21.92
63347;BME280;49472;49.880;8.650;2022-11-15T11:34:19;99353.47;;;38.79;22.06
63347;BME280;49472;49.880;8.650;2022-11-15T11:44:37;99344.53;;;39.30;21.97
63347;BME280;49472;49.880;8.650;2022-11-15T11:47:14;99343.72;;;38.39;22.42
63347;BME280;49472;49.880;8.650;2022-11-15T11:49:59;99338.19;;;37.12;24.26
63347;BME280;49472;49.880;8.650;2022-11-15T11:52:41;99325.97;;;39.43;21.96
63347;BME280;49472;49.880;8.650;2022-11-15T11:55:53;99330.19;;;38.01;23.21
63347;BME280;49472;49.880;8.650;2022-11-15T11:58:09;99318.78;;;38.53;22.66
63347;BME280;49472;49.880;8.650;2022-11-15T12:00:44;99311.78;;;39.81;21.85
63347;BME280;49472;49.880;8.650;2022-11-15T12:03:20;99325.31;;;37.94;23.12
63347;BME280;49472;49.880;8.650;2022-11-15T12:06:35;99317.66;;;40.16;21.20
63347;BME280;49472;49.880;8.650;2022-11-15T12:08:52;99309.31;;;38.20;22.31
63347;BME280;49472;49.880;8.650;2022-11-15T12:11:38;99302.09;;;38.38;22.24
63347;BME280;49472;49.880;8.650;2022-11-15T12:14:14;99293.59;;;39.27;21.87
63347;BME280;49472;49.880;8.650;2022-11-15T12:16:42;99297.97;;;38.84;21.71
63347;BME280;49472;49.880;8.650;2022-11-15T12:19:08;99295.63;;;38.74;21.78
63347;BME280;49472;49.880;8.650;2022-11-15T12:21:43;99292.38;;;36.88;23.50
63347;BME280;49472;49.880;8.650;2022-11-15T12:24:20;99285.09;;;37.02;22.96
63347;BME280;49472;49.880;8.650;2022-11-15T12:27:00;99277.69;;;37.62;22.41
63347;BME280;49472;49.880;8.650;2022-11-15T12:29:33;99289.06;;;35.73;24.30
63347;BME280;49472;49.880;8.650;2022-11-15T12:32:01;99269.03;;;37.16;23.19
63347;BME280;49472;49.880;8.650;2022-11-15T12:34:29;99259.53;;;38.33;22.28
63347;BME280;49472;49.880;8.650;2022-11-15T12:36:59;99262.28;;;35.56;24.60
63347;BME280;49472;49.880;8.650;2022-11-15T12:42:42;99260.94;;;36.67;23.31
63347;BME280;49472;49.880;8.650;2022-11-15T12:45:34;99264.88;;;36.11;24.37
63347;BME280;49472;49.880;8.650;2022-11-15T12:53:31;99259.81;;;36.91;23.34
63347;BME280;49472;49.880;8.650;2022-11-15T12:58:57;99249.63;;;37.24;23.24
63347;BME280;49472;49.880;8.650;2022-11-15T13:06:58;99245.44;;;36.69;24.17
63347;BME280;49472;49.880;8.650;2022-11-15T13:12:11;99238.00;;;37.95;22.74
63347;BME280;49472;49.880;8.650;2022-11-15T13:15:00;99247.13;;;36.97;23.10
63347;BME280;49472;49.880;8.650;2022-11-15T13:17:42;99245.06;;;36.93;23.57
63347;BME280;49472;49.880;8.650;2022-11-15T13:22:41;99237.59;;;37.44;23.54
63347;BME280;49472;49.880;8.650;2022-11-15T13:27:56;99216.97;;;37.93;22.62
63347;BME280;49472;49.880;8.650;2022-11-15T13:30:25;99219.34;;;37.86;22.86
63347;BME280;49472;49.880;8.650;2022-11-15T13:32:51;99214.59;;;38.53;21.90
63347;BME280;49472;49.880;8.650;2022-11-15T13:35:24;99207.34;;;39.09;21.71
63347;BME280;49472;49.880;8.650;2022-11-15T13:37:52;99210.13;;;39.21;21.46
63347;BME280;49472;49.880;8.650;2022-11-15T13:42:45;99198.41;;;39.35;21.60
63347;BME280;49472;49.880;8.650;2022-11-15T13:45:14;99197.47;;;39.01;21.62
63347;BME280;49472;49.880;8.650;2022-11-15T13:47:40;99195.31;;;39.24;21.63
63347;BME280;49472;49.880;8.650;2022-11-15T13:50:05;99183.84;;;38.94;21.65
63347;BME280;49472;49.880;8.650;2022-11-15T13:52:35;99184.41;;;39.29;21.76
63347;BME280;49472;49.880;8.650;2022-11-15T13:55:08;99177.13;;;39.38;21.57
63347;BME280;49472;49.880;8.650;2022-11-15T13:57:54;99177.94;;;39.81;21.37
63347;BME280;49472;49.880;8.650;2022-11-15T14:00:41;99173.22;;;39.36;21.41
63347;BME280;49472;49.880;8.650;2022-11-15T14:03:21;99173.38;;;39.81;20.98
63347;BME280;49472;49.880;8.650;2022-11-15T14:08:38;99162.56;;;39.27;21.70
63347;BME280;49472;49.880;8.650;2022-11-15T14:11:29;99164.34;;;38.93;21.56
63347;BME280;49472;49.880;8.650;2022-11-15T14:16:40;99155.69;;;39.89;21.47
63347;BME280;49472;49.880;8.650;2022-11-15T14:19:10;99156.91;;;39.91;21.27
63347;BME280;49472;49.880;8.650;2022-11-15T14:21:36;99147.84;;;39.63;21.08
63347;BME280;49472;49.880;8.650;2022-11-15T14:24:34;99142.44;;;39.92;20.92
63347;BME280;49472;49.880;8.650;2022-11-15T14:27:25;99136.41;;;39.96;21.33
63347;BME280;49472;49.880;8.650;2022-11-15T14:29:52;99130.94;;;39.71;21.09
63347;BME280;49472;49.880;8.650;2022-11-15T14:32:28;99132.84;;;40.04;20.89
63347;BME280;49472;49.880;8.650;2022-11-15T14:34:59;99132.31;;;39.77;21.36
63347;BME280;49472;49.880;8.650;2022-11-15T14:37:27;99126.66;;;39.58;21.35
63347;BME280;49472;49.880;8.650;2022-11-15T14:39:53;99122.06;;;39.58;21.39
63347;BME280;49472;49.880;8.650;2022-11-15T14:42:20;99114.50;;;39.60;21.01
63347;BME280;49472;49.880;8.650;2022-11-15T14:44:46;99111.78;;;39.48;21.32
63347;BME280;49472;49.880;8.650;2022-11-15T14:47:11;99112.28;;;39.62;21.58
63347;BME280;49472;49.880;8.650;2022-11-15T14:49:36;99102.66;;;39.49;21.42
63347;BME280;49472;49.880;8.650;2022-11-15T14:52:04;99106.03;;;39.58;21.44
63347;BME280;49472;49.880;8.650;2022-11-15T14:54:30;99095.03;;;39.39;21.73
63347;BME280;49472;49.880;8.650;2022-11-15T14:56:55;99087.63;;;39.57;21.40
63347;BME280;49472;49.880;8.650;2022-11-15T14:59:20;99090.84;;;39.50;21.69
63347;BME280;49472;49.880;8.650;2022-11-15T15:01:46;99084.97;;;39.57;21.53
63347;BME280;49472;49.880;8.650;2022-11-15T15:04:11;99082.91;;;39.33;21.52
63347;BME280;49472;49.880;8.650;2022-11-15T15:06:37;99074.63;;;39.25;22.08